Rapid City, SD

5:47 AM MDT on July 24, 2016 (GMT -0600)
RAWS | | Change Station

Elev 4671 ft 43.98 °N, 103.43 °W | Updated 1 hour ago

Overcast
Overcast
59.0 °F
Feels Like 59.0 °F
N
4.0
Wind Variable Wind from NW
Gusts 0.0 mph

Today
High -- | Low -- °F
--% Chance of Precip.
Yesterday
High -- | Low -- °F
Precip. -- in
Pressure 30.11 in
Visibility 10.0 miles
Clouds Few 4600 ft
Overcast 10000 ft
Dew Point 42.0 °F
Humidity 53%
Rainfall in
Snow Depth Not available.
5:34 AM 8:25 PM
Waning Gibbous, 77% visible
SPECI KRAP 241132Z AUTO 01009KT 10SM VCTS FEW046 OVC100 16/12 A3011 RMK AO2 LTG DSNT NE RAB1058E26 TSB03E26 P0008 T01610122
Pressure 30.11 in
Visibility 10.0 miles
Clouds Few 4600 ft
Overcast 10000 ft
Dew Point 42.0 °F
Humidity 53%
Rainfall in
Snow Depth Not available.
5:34 AM 8:25 PM
Waning Gibbous, 77% visible
SPECI KRAP 241132Z AUTO 01009KT 10SM VCTS FEW046 OVC100 16/12 A3011 RMK AO2 LTG DSNT NE RAB1058E26 TSB03E26 P0008 T01610122

10-Day Weather Forecast

Almanac

Astronomy

Jul. 24, 2016 Rise Set
Actual Time
Civil Twilight
Nautical Twilight
Astronomical Twilight
Moon
Length of Visible Light
Length of Day
Tomorrow will be .
, % of the Moon is Illuminated

Today's Extremes

State Highs State Lows

Community

WunderPhotos

Upload Photos

1,927,049 photos uploaded!

WunderBlog® & News

Nearby

Air Quality

  Air Quality AQ Index Pollutant
Not available.

Snow Depth

Station Depth Elevation

Earthquake Activity

City Distance Mag. Time & Date
Minimum magnitude displayed is 2.5.

Coastal Water Temperatures

Place Temperature

Stations

Nearby Weather Stations

Station Location Temp. Windchill Dew Point Humidity Wind Precip. Elev Updated Type
                   

Watches & Warnings

There are currently no watches in effect.